createdAt,value
2018-09-19T00:00:58.433Z,0.00
2018-09-19T00:01:58.356Z,0.00
2018-09-19T00:02:58.285Z,0.00
2018-09-19T00:03:58.213Z,0.00
2018-09-19T00:04:58.154Z,0.00
2018-09-19T00:05:58.070Z,0.00
2018-09-19T00:06:58.000Z,0.00
2018-09-19T00:07:57.926Z,0.00
2018-09-19T00:08:57.855Z,0.00
2018-09-19T00:09:57.782Z,0.00
2018-09-19T00:10:57.708Z,0.00
2018-09-19T00:11:57.646Z,0.00
2018-09-19T00:12:57.566Z,0.00
2018-09-19T00:13:57.492Z,0.00
2018-09-19T00:14:57.423Z,0.00
2018-09-19T00:15:57.351Z,0.00
2018-09-19T00:16:57.278Z,0.00
2018-09-19T00:17:57.204Z,0.00
2018-09-19T00:18:57.136Z,0.00
2018-09-19T00:19:57.083Z,0.00
2018-09-19T00:20:56.986Z,0.00
2018-09-19T00:21:56.914Z,0.00
2018-09-19T00:22:56.845Z,0.00
2018-09-19T00:23:56.807Z,0.00
2018-09-19T00:24:56.697Z,0.00
2018-09-19T00:25:56.626Z,0.00
2018-09-19T00:26:56.557Z,0.00
2018-09-19T00:27:56.479Z,0.00
2018-09-19T00:28:56.412Z,0.00
2018-09-19T00:29:56.340Z,0.00
2018-09-19T00:30:56.268Z,0.00
2018-09-19T00:31:56.192Z,0.00
2018-09-19T00:32:56.123Z,0.00
2018-09-19T00:33:56.067Z,0.00
2018-09-19T00:34:55.976Z,0.00
2018-09-19T00:35:55.931Z,0.00
2018-09-19T00:36:55.830Z,0.00
2018-09-19T00:37:55.756Z,0.00
2018-09-19T00:38:55.691Z,0.00
2018-09-19T00:39:55.630Z,0.00
2018-09-19T00:40:55.545Z,0.00
2018-09-19T00:41:55.474Z,0.00
2018-09-19T00:42:55.396Z,0.00
2018-09-19T00:43:55.327Z,0.00
2018-09-19T00:44:55.255Z,0.00
2018-09-19T00:45:55.178Z,0.00
2018-09-19T00:46:55.110Z,0.00
2018-09-19T00:47:55.040Z,0.00
2018-09-19T00:48:54.963Z,0.00
2018-09-19T00:49:54.886Z,0.00
2018-09-19T00:50:54.815Z,0.00
2018-09-19T00:51:54.745Z,0.00
2018-09-19T00:52:54.672Z,0.00
2018-09-19T00:53:54.626Z,0.00
2018-09-19T00:54:54.524Z,0.00
2018-09-19T00:55:54.452Z,0.00
2018-09-19T00:56:54.390Z,0.00
2018-09-19T00:57:54.312Z,0.00
2018-09-19T00:58:54.235Z,0.00
2018-09-19T00:59:54.161Z,0.00
2018-09-19T01:00:54.090Z,0.00
2018-09-19T01:01:54.071Z,0.00
2018-09-19T01:02:53.958Z,0.00
2018-09-19T01:03:53.872Z,0.00
2018-09-19T01:04:53.806Z,0.00
2018-09-19T01:05:53.749Z,0.00
2018-09-19T01:06:53.654Z,0.00
2018-09-19T01:07:53.581Z,0.00
2018-09-19T01:08:53.510Z,0.00
2018-09-19T01:09:53.435Z,0.00
2018-09-19T01:10:53.364Z,0.00
2018-09-19T01:11:53.295Z,0.00
2018-09-19T01:12:53.218Z,0.00
2018-09-19T01:13:53.142Z,0.00
2018-09-19T01:14:53.077Z,0.00
2018-09-19T01:15:52.998Z,0.00
2018-09-19T01:16:52.927Z,0.00
2018-09-19T01:17:52.851Z,0.00
2018-09-19T01:18:52.787Z,0.00
2018-09-19T01:19:52.707Z,0.00
2018-09-19T01:20:52.634Z,0.00
2018-09-19T01:21:52.561Z,0.00
2018-09-19T01:22:52.503Z,0.00
2018-09-19T01:23:52.417Z,0.00
2018-09-19T01:24:52.343Z,0.00
2018-09-19T01:25:52.271Z,0.00
2018-09-19T01:26:52.197Z,0.00
2018-09-19T01:27:52.129Z,0.00
2018-09-19T01:28:52.052Z,0.00
2018-09-19T01:29:51.979Z,0.00
2018-09-19T01:30:51.908Z,0.00
2018-09-19T01:31:51.833Z,0.00
2018-09-19T01:32:51.759Z,0.00
2018-09-19T01:33:51.687Z,0.00
2018-09-19T01:34:51.618Z,0.00
2018-09-19T01:35:51.540Z,0.00
2018-09-19T01:36:51.469Z,0.00
2018-09-19T01:37:51.397Z,0.00
2018-09-19T01:38:51.324Z,0.00
2018-09-19T01:39:51.249Z,0.00
2018-09-19T01:40:51.174Z,0.00
2018-09-19T01:41:51.102Z,0.00
2018-09-19T01:42:51.031Z,0.00
2018-09-19T01:43:50.958Z,0.00
2018-09-19T01:44:50.883Z,0.00
2018-09-19T01:45:50.818Z,0.00
2018-09-19T01:46:50.747Z,0.00
2018-09-19T01:47:50.663Z,0.00
2018-09-19T01:48:50.591Z,0.00
2018-09-19T01:49:50.528Z,0.00
2018-09-19T01:50:50.452Z,0.00
2018-09-19T01:51:50.377Z,0.00
2018-09-19T01:52:50.308Z,0.00
2018-09-19T01:53:50.225Z,0.00
2018-09-19T01:54:50.158Z,0.00
2018-09-19T01:55:50.079Z,0.00
2018-09-19T01:56:50.007Z,0.00
2018-09-19T01:57:49.936Z,0.00
2018-09-19T01:58:49.860Z,0.00
2018-09-19T01:59:49.797Z,0.00
2018-09-19T02:00:49.718Z,0.00
2018-09-19T02:01:49.641Z,0.00
2018-09-19T02:02:49.570Z,0.00
2018-09-19T02:03:49.495Z,0.00
2018-09-19T02:04:49.432Z,0.00
2018-09-19T02:05:49.353Z,0.00
2018-09-19T02:06:49.281Z,0.00
2018-09-19T02:07:49.202Z,0.00
2018-09-19T02:08:49.132Z,0.00
2018-09-19T02:09:49.059Z,0.00
2018-09-19T02:10:48.986Z,0.00
2018-09-19T02:11:48.912Z,0.00
2018-09-19T02:12:48.843Z,0.00
2018-09-19T02:13:48.769Z,0.00
2018-09-19T02:14:48.693Z,0.00
2018-09-19T02:15:48.616Z,0.00
2018-09-19T02:16:48.544Z,0.00
2018-09-19T02:17:48.476Z,0.00
2018-09-19T02:18:48.399Z,0.00
2018-09-19T02:19:48.326Z,0.00
2018-09-19T02:20:48.253Z,0.00
2018-09-19T02:21:48.179Z,0.00
2018-09-19T02:22:48.106Z,0.00
2018-09-19T02:23:48.036Z,0.00
2018-09-19T02:24:47.960Z,0.00
2018-09-19T02:25:47.888Z,0.00
2018-09-19T02:26:47.814Z,0.00
2018-09-19T02:27:47.741Z,0.00
2018-09-19T02:28:47.669Z,0.00
2018-09-19T02:29:47.597Z,0.00
2018-09-19T02:30:47.520Z,0.00
2018-09-19T02:31:47.446Z,0.00
2018-09-19T02:32:47.374Z,0.00
2018-09-19T02:33:47.307Z,0.00
2018-09-19T02:34:47.229Z,0.00
2018-09-19T02:35:47.155Z,0.00
2018-09-19T02:36:47.089Z,0.00
2018-09-19T02:37:47.011Z,0.00
2018-09-19T02:38:46.935Z,0.00
2018-09-19T02:39:46.859Z,0.00
2018-09-19T02:40:46.786Z,0.00
2018-09-19T02:41:46.716Z,0.00
2018-09-19T02:42:46.649Z,0.00
2018-09-19T02:43:46.568Z,0.00
2018-09-19T02:44:46.497Z,0.00
2018-09-19T02:45:46.424Z,0.00
2018-09-19T02:46:46.350Z,0.00
2018-09-19T02:47:46.276Z,0.00
2018-09-19T02:48:46.202Z,0.00
2018-09-19T02:49:46.129Z,0.00
2018-09-19T02:50:46.056Z,0.00
2018-09-19T02:51:45.986Z,0.00
2018-09-19T02:52:45.909Z,0.00
2018-09-19T02:53:45.837Z,0.00
2018-09-19T02:54:45.761Z,0.00
2018-09-19T02:55:45.688Z,0.00
2018-09-19T02:56:45.614Z,0.00
2018-09-19T02:57:45.547Z,0.00
2018-09-19T02:58:45.469Z,0.00
2018-09-19T02:59:45.394Z,0.00
2018-09-19T03:00:45.323Z,0.00
2018-09-19T03:01:45.253Z,0.00
2018-09-19T03:02:45.175Z,0.00
2018-09-19T03:03:45.100Z,0.00
2018-09-19T03:04:45.097Z,0.00
2018-09-19T03:05:44.962Z,0.00
2018-09-19T03:06:44.881Z,0.00
2018-09-19T03:07:44.806Z,0.00
2018-09-19T03:08:44.734Z,0.00
2018-09-19T03:09:44.660Z,0.00
2018-09-19T03:10:44.587Z,0.00
2018-09-19T03:11:44.513Z,0.00
2018-09-19T03:12:44.451Z,0.00
2018-09-19T03:13:44.377Z,0.00
2018-09-19T03:14:44.293Z,0.00
2018-09-19T03:15:44.224Z,0.00
2018-09-19T03:16:44.147Z,0.00
2018-09-19T03:17:44.244Z,0.00
2018-09-19T03:18:43.998Z,0.00
2018-09-19T03:19:43.924Z,0.00
2018-09-19T03:20:43.851Z,0.00
2018-09-19T03:21:43.779Z,0.00
2018-09-19T03:22:43.706Z,0.00
2018-09-19T03:23:43.632Z,0.00
2018-09-19T03:24:43.572Z,0.00
2018-09-19T03:25:43.486Z,0.00
2018-09-19T03:26:43.413Z,0.00
2018-09-19T03:27:43.333Z,0.00
2018-09-19T03:28:43.271Z,0.00
2018-09-19T03:29:43.187Z,0.00
2018-09-19T03:30:43.124Z,0.00
2018-09-19T03:31:43.038Z,0.00
2018-09-19T03:32:42.966Z,0.00
2018-09-19T03:33:42.894Z,0.00
2018-09-19T03:34:42.821Z,0.00
2018-09-19T03:35:42.749Z,0.00
2018-09-19T03:36:42.674Z,0.00
2018-09-19T03:37:42.606Z,0.00
2018-09-19T03:38:42.525Z,0.00
2018-09-19T03:39:42.453Z,0.00
2018-09-19T03:40:42.384Z,0.00
2018-09-19T03:41:42.299Z,0.00
2018-09-19T03:42:42.227Z,0.00
2018-09-19T03:43:42.153Z,0.00
2018-09-19T03:44:42.078Z,0.00
2018-09-19T03:45:42.004Z,0.00
2018-09-19T03:46:41.928Z,0.00
2018-09-19T03:47:41.858Z,0.00
2018-09-19T03:48:41.783Z,0.00
2018-09-19T03:49:41.708Z,0.00
2018-09-19T03:50:41.632Z,0.00
2018-09-19T03:51:41.558Z,0.00
2018-09-19T03:52:41.487Z,0.00
2018-09-19T03:53:41.422Z,0.00
2018-09-19T03:54:41.359Z,0.00
2018-09-19T03:55:41.263Z,0.00
2018-09-19T03:56:41.188Z,0.00
2018-09-19T03:57:41.114Z,0.00
2018-09-19T03:58:41.053Z,0.00
2018-09-19T03:59:40.966Z,0.00
2018-09-19T04:00:40.896Z,0.00
2018-09-19T04:01:40.823Z,0.00
2018-09-19T04:02:40.743Z,0.00
2018-09-19T04:03:40.686Z,0.00
2018-09-19T04:04:40.596Z,0.00
2018-09-19T04:05:40.523Z,0.00
2018-09-19T04:06:40.449Z,0.00
2018-09-19T04:07:40.373Z,0.00
2018-09-19T04:08:40.299Z,0.00
2018-09-19T04:09:40.226Z,0.00
2018-09-19T04:10:40.170Z,0.00
2018-09-19T04:11:40.079Z,0.00
2018-09-19T04:12:40.006Z,0.00
2018-09-19T04:13:39.939Z,0.00
2018-09-19T04:14:39.871Z,0.00
2018-09-19T04:15:39.805Z,0.00
2018-09-19T04:16:39.708Z,0.00
2018-09-19T04:17:39.643Z,0.00
2018-09-19T04:18:39.559Z,0.00
2018-09-19T04:19:39.492Z,0.00
2018-09-19T04:20:39.411Z,0.00
2018-09-19T04:21:39.335Z,0.00
2018-09-19T04:22:39.259Z,0.00
2018-09-19T04:23:39.184Z,0.00
2018-09-19T04:24:39.114Z,0.00
2018-09-19T04:25:39.047Z,0.00
2018-09-19T04:26:38.963Z,0.00
2018-09-19T04:27:38.888Z,0.00
2018-09-19T04:28:38.814Z,0.00
2018-09-19T04:29:38.738Z,0.00
2018-09-19T04:30:38.665Z,0.00
2018-09-19T04:31:38.588Z,0.00
2018-09-19T04:32:38.517Z,0.00
2018-09-19T04:33:38.442Z,0.00
2018-09-19T04:34:38.368Z,0.00
2018-09-19T04:35:38.294Z,0.00
2018-09-19T04:36:38.215Z,0.00
2018-09-19T04:37:38.157Z,4.00
2018-09-19T04:38:38.072Z,0.00
2018-09-19T04:39:37.990Z,0.00
2018-09-19T04:40:37.917Z,4.00
2018-09-19T04:41:37.845Z,4.00
2018-09-19T04:42:37.781Z,4.00
2018-09-19T04:43:37.699Z,4.00
2018-09-19T04:44:37.623Z,4.00
2018-09-19T04:45:37.549Z,4.00
2018-09-19T04:46:37.471Z,8.00
2018-09-19T04:47:37.410Z,8.00
2018-09-19T04:48:37.333Z,8.00
2018-09-19T04:49:37.248Z,12.00
2018-09-19T04:50:37.176Z,12.00
2018-09-19T04:51:37.207Z,16.00
2018-09-19T04:52:37.026Z,16.00
2018-09-19T04:53:36.968Z,20.00
2018-09-19T04:54:36.876Z,20.00
2018-09-19T04:55:36.804Z,24.00
2018-09-19T04:56:36.735Z,32.00
2018-09-19T04:57:36.651Z,32.00
2018-09-19T04:58:36.579Z,36.00
2018-09-19T04:59:36.504Z,40.00
2018-09-19T05:00:36.430Z,44.00
2018-09-19T05:01:36.353Z,48.00
2018-09-19T05:02:36.294Z,56.00
2018-09-19T05:03:36.210Z,60.00
2018-09-19T05:04:36.135Z,64.00
2018-09-19T05:05:36.129Z,68.00
2018-09-19T05:06:35.986Z,76.00
2018-09-19T05:07:35.913Z,76.00
2018-09-19T05:08:35.833Z,84.00
2018-09-19T05:09:35.762Z,92.00
2018-09-19T05:10:35.688Z,96.00
2018-09-19T05:11:35.612Z,100.00
2018-09-19T05:12:35.535Z,108.00
2018-09-19T05:13:35.461Z,116.00
2018-09-19T05:14:35.387Z,128.00
2018-09-19T05:15:35.315Z,132.00
2018-09-19T05:16:35.238Z,140.00
2018-09-19T05:17:35.163Z,144.00
2018-09-19T05:18:35.088Z,148.00
2018-09-19T05:19:35.015Z,148.00
2018-09-19T05:20:34.943Z,148.00
2018-09-19T05:21:34.870Z,152.00
2018-09-19T05:22:34.814Z,152.00
2018-09-19T05:23:34.716Z,148.00
2018-09-19T05:24:34.641Z,148.00
2018-09-19T05:25:34.572Z,144.00
2018-09-19T05:26:34.495Z,140.00
2018-09-19T05:27:42.077Z,136.00
2018-09-19T05:29:38.810Z,132.00
2018-09-19T05:30:38.650Z,136.00
2018-09-19T05:32:42.963Z,144.00
2018-09-19T05:33:42.901Z,148.00
2018-09-19T05:35:47.237Z,160.00
2018-09-19T05:36:47.110Z,168.00
2018-09-19T05:38:40.361Z,176.00
2018-09-19T05:39:40.277Z,184.00
2018-09-19T05:41:44.638Z,208.00
2018-09-19T05:42:44.514Z,220.00
2018-09-19T05:43:44.439Z,236.00
2018-09-19T05:44:44.363Z,252.00
2018-09-19T05:45:44.295Z,272.00
2018-09-19T05:46:44.220Z,296.00
2018-09-19T05:47:44.147Z,332.00
2018-09-19T05:48:44.067Z,368.00
2018-09-19T05:49:43.993Z,400.00
2018-09-19T05:50:43.917Z,432.00
2018-09-19T05:51:43.844Z,456.00
2018-09-19T05:52:43.768Z,476.00
2018-09-19T05:53:43.696Z,496.00
2018-09-19T05:54:43.623Z,508.00
2018-09-19T05:55:43.544Z,508.00
2018-09-19T05:56:43.469Z,488.00
2018-09-19T05:57:43.409Z,468.00
2018-09-19T05:58:43.321Z,448.00
2018-09-19T05:59:43.247Z,436.00
2018-09-19T06:00:43.173Z,420.00
2018-09-19T06:01:43.098Z,412.00
2018-09-19T06:02:43.075Z,412.00
2018-09-19T06:03:42.956Z,420.00
2018-09-19T06:04:42.887Z,444.00
2018-09-19T06:05:42.803Z,476.00
2018-09-19T06:06:42.729Z,504.00
2018-09-19T06:07:42.651Z,528.00
2018-09-19T06:08:42.582Z,552.00
2018-09-19T06:09:42.508Z,572.00
2018-09-19T06:10:42.428Z,600.00
2018-09-19T06:11:42.359Z,644.00
2018-09-19T06:12:42.339Z,692.00
2018-09-19T06:13:42.210Z,744.00
2018-09-19T06:14:42.135Z,784.00
2018-09-19T06:15:42.063Z,832.00
2018-09-19T06:16:41.989Z,876.00
2018-09-19T06:17:41.911Z,924.00
2018-09-19T06:18:41.836Z,972.00
2018-09-19T06:19:41.766Z,1012.00
2018-09-19T06:20:41.686Z,1056.00
2018-09-19T06:21:41.618Z,1096.00
2018-09-19T06:22:41.544Z,1140.00
2018-09-19T06:23:41.466Z,1172.00
2018-09-19T06:24:41.391Z,1208.00
2018-09-19T06:25:41.315Z,1240.00
2018-09-19T06:26:41.249Z,1272.00
2018-09-19T06:27:41.175Z,1300.00
2018-09-19T06:28:41.122Z,1332.00
2018-09-19T06:29:41.021Z,1364.00
2018-09-19T06:30:40.949Z,1404.00
2018-09-19T06:31:40.876Z,1452.00
2018-09-19T06:32:40.802Z,1496.00
2018-09-19T06:33:40.746Z,1548.00
2018-09-19T06:34:40.648Z,1600.00
2018-09-19T06:35:40.585Z,1652.00
2018-09-19T06:36:40.505Z,1708.00
2018-09-19T06:37:40.429Z,1752.00
2018-09-19T06:38:40.364Z,1796.00
2018-09-19T06:39:40.284Z,1848.00
2018-09-19T06:40:40.391Z,1900.00
2018-09-19T06:41:40.137Z,1964.00
2018-09-19T06:42:40.060Z,2020.00
2018-09-19T06:43:39.986Z,2044.00
2018-09-19T06:44:39.910Z,2056.00
2018-09-19T06:45:39.909Z,2076.00
2018-09-19T06:46:39.767Z,2084.00
2018-09-19T06:47:39.691Z,2112.00
2018-09-19T06:48:39.616Z,2128.00
2018-09-19T06:49:39.605Z,2168.00
2018-09-19T06:50:39.468Z,2124.00
2018-09-19T06:51:39.441Z,2092.00
2018-09-19T06:52:39.385Z,2112.00
2018-09-19T06:53:39.251Z,2168.00
2018-09-19T06:54:39.176Z,2228.00
2018-09-19T06:55:39.104Z,2292.00
2018-09-19T06:56:39.028Z,2360.00
2018-09-19T06:57:38.962Z,2340.00
2018-09-19T06:58:38.899Z,2288.00
2018-09-19T06:59:38.820Z,2272.00
2018-09-19T07:00:38.825Z,2308.00
2018-09-19T07:01:38.663Z,2408.00
2018-09-19T07:02:38.586Z,2428.00
2018-09-19T07:03:38.515Z,2428.00
2018-09-19T07:04:38.444Z,2540.00
2018-09-19T07:05:38.370Z,2540.00
2018-09-19T07:06:38.292Z,2516.00
2018-09-19T07:07:38.218Z,2472.00
2018-09-19T07:08:38.149Z,2416.00
2018-09-19T07:09:38.073Z,2404.00
2018-09-19T07:10:38.028Z,2388.00
2018-09-19T07:11:37.931Z,2400.00
2018-09-19T07:12:37.851Z,2468.00
2018-09-19T07:13:37.778Z,2444.00
2018-09-19T07:14:37.708Z,2416.00
2018-09-19T07:15:37.637Z,2444.00
2018-09-19T07:16:37.571Z,2516.00
2018-09-19T07:17:37.492Z,2468.00
2018-09-19T07:18:37.417Z,2496.00
2018-09-19T07:19:37.344Z,2560.00
2018-09-19T07:20:37.271Z,2636.00
2018-09-19T07:21:37.192Z,2768.00
2018-09-19T07:22:37.123Z,2872.00
2018-09-19T07:23:37.104Z,2932.00
2018-09-19T07:24:36.979Z,3100.00
2018-09-19T07:25:36.905Z,3056.00
2018-09-19T07:26:36.827Z,2940.00
2018-09-19T07:27:36.754Z,2956.00
2018-09-19T07:28:36.684Z,2976.00
2018-09-19T07:29:36.606Z,2988.00
2018-09-19T07:30:36.532Z,2968.00
2018-09-19T07:31:36.462Z,2944.00
2018-09-19T07:32:36.393Z,2884.00
2018-09-19T07:33:36.316Z,2824.00
2018-09-19T07:34:36.293Z,2796.00
2018-09-19T07:35:36.171Z,2804.00
2018-09-19T07:36:36.099Z,2844.00
2018-09-19T07:37:36.023Z,2864.00
2018-09-19T07:38:35.950Z,2880.00
2018-09-19T07:39:35.876Z,2912.00
2018-09-19T07:40:35.806Z,2940.00
2018-09-19T07:41:35.735Z,2936.00
2018-09-19T07:42:35.659Z,2952.00
2018-09-19T07:43:35.589Z,2976.00
2018-09-19T07:44:35.512Z,2984.00
2018-09-19T07:45:35.459Z,3024.00
2018-09-19T07:46:35.381Z,3276.00
2018-09-19T07:47:35.303Z,3324.00
2018-09-19T07:48:35.225Z,3420.00
2018-09-19T07:49:35.154Z,3528.00
2018-09-19T07:50:35.077Z,3612.00
2018-09-19T07:51:34.999Z,3676.00
2018-09-19T07:52:34.935Z,3760.00
2018-09-19T07:53:34.853Z,3800.00
2018-09-19T07:54:34.803Z,3864.00
2018-09-19T07:55:34.714Z,3880.00
2018-09-19T07:56:34.635Z,3840.00
2018-09-19T07:57:34.565Z,3696.00
2018-09-19T07:58:34.496Z,3588.00
2018-09-19T07:59:34.416Z,3536.00
2018-09-19T08:00:34.409Z,3488.00
2018-09-19T08:01:34.271Z,3396.00
2018-09-19T08:02:34.209Z,3280.00
2018-09-19T08:03:34.131Z,3284.00
2018-09-19T08:04:34.050Z,3416.00
2018-09-19T08:05:33.981Z,3560.00
2018-09-19T08:06:33.908Z,3604.00
2018-09-19T08:07:33.849Z,3620.00
2018-09-19T08:08:33.760Z,3648.00
2018-09-19T08:09:33.693Z,3660.00
2018-09-19T08:10:33.613Z,3588.00
2018-09-19T08:11:33.544Z,3468.00
2018-09-19T08:12:33.476Z,3252.00
2018-09-19T08:13:33.396Z,2996.00
2018-09-19T08:14:33.327Z,2780.00
2018-09-19T08:15:33.255Z,2604.00
2018-09-19T08:16:33.191Z,2436.00
2018-09-19T08:17:33.113Z,2276.00
2018-09-19T08:18:33.058Z,2172.00
2018-09-19T08:19:32.989Z,2100.00
2018-09-19T08:20:32.891Z,2008.00
2018-09-19T08:21:32.834Z,1900.00
2018-09-19T08:22:32.834Z,1812.00
2018-09-19T08:23:32.671Z,1744.00
2018-09-19T08:24:32.598Z,1672.00
2018-09-19T08:25:32.531Z,1680.00
2018-09-19T08:26:32.451Z,1872.00
2018-09-19T08:27:32.383Z,2000.00
2018-09-19T08:28:32.317Z,2060.00
2018-09-19T08:29:32.238Z,2040.00
2018-09-19T08:30:32.162Z,2036.00
2018-09-19T08:31:32.091Z,2080.00
2018-09-19T08:32:32.034Z,2140.00
2018-09-19T08:33:31.948Z,2180.00
2018-09-19T08:34:31.875Z,2176.00
2018-09-19T08:35:31.799Z,2220.00
2018-09-19T08:36:31.739Z,2252.00
2018-09-19T08:37:31.668Z,2276.00
2018-09-19T08:38:31.580Z,2292.00
2018-09-19T08:39:31.576Z,2284.00
2018-09-19T08:40:31.504Z,2264.00
2018-09-19T08:41:31.366Z,2256.00
2018-09-19T08:42:31.290Z,2240.00
2018-09-19T08:43:31.218Z,2220.00
2018-09-19T08:44:31.145Z,2244.00
2018-09-19T08:45:31.073Z,2280.00
2018-09-19T08:46:31.021Z,2316.00
2018-09-19T08:47:30.927Z,2364.00
2018-09-19T08:48:30.860Z,2468.00
2018-09-19T08:49:30.795Z,2624.00
2018-09-19T08:50:30.793Z,2792.00
2018-09-19T08:51:30.641Z,2892.00
2018-09-19T08:52:30.563Z,2936.00
2018-09-19T08:53:30.492Z,2928.00
2018-09-19T08:54:30.417Z,2896.00
2018-09-19T08:55:30.348Z,2876.00
2018-09-19T08:56:30.288Z,2828.00
2018-09-19T08:57:30.204Z,2788.00
2018-09-19T08:58:30.131Z,2792.00
2018-09-19T08:59:30.056Z,2836.00
2018-09-19T09:00:29.986Z,2884.00
2018-09-19T09:01:29.916Z,2948.00
2018-09-19T09:02:29.842Z,3028.00
2018-09-19T09:03:29.767Z,3144.00
2018-09-19T09:04:29.701Z,3272.00
2018-09-19T09:05:29.727Z,3380.00
2018-09-19T09:06:29.548Z,3468.00
2018-09-19T09:07:29.489Z,3504.00
2018-09-19T09:08:29.418Z,3516.00
2018-09-19T09:09:29.331Z,3488.00
2018-09-19T09:10:29.259Z,3468.00
2018-09-19T09:11:29.186Z,3476.00
2018-09-19T09:12:29.158Z,3508.00
2018-09-19T09:13:29.052Z,3536.00
2018-09-19T09:14:28.972Z,3560.00
2018-09-19T09:15:28.896Z,3572.00
2018-09-19T09:16:28.828Z,3588.00
2018-09-19T09:17:28.756Z,3588.00
2018-09-19T09:18:28.698Z,3588.00
2018-09-19T09:19:28.781Z,3608.00
2018-09-19T09:20:28.581Z,3668.00
2018-09-19T09:21:28.470Z,3796.00
2018-09-19T09:22:28.401Z,3980.00
2018-09-19T09:23:28.321Z,4200.00
2018-09-19T09:24:28.248Z,4416.00
2018-09-19T09:25:28.181Z,4632.00
2018-09-19T09:26:28.112Z,4752.00
2018-09-19T09:27:28.074Z,4836.00
2018-09-19T09:28:27.959Z,4928.00
2018-09-19T09:29:27.889Z,5036.00
2018-09-19T09:30:27.823Z,5160.00
2018-09-19T09:31:27.746Z,5320.00
2018-09-19T09:32:27.689Z,5492.00
2018-09-19T09:33:27.598Z,5644.00
2018-09-19T09:34:27.526Z,5804.00
2018-09-19T09:35:27.459Z,5924.00
2018-09-19T09:36:27.383Z,5988.00
2018-09-19T09:37:27.313Z,6076.00
2018-09-19T09:38:27.246Z,6244.00
2018-09-19T09:39:27.171Z,6444.00
2018-09-19T09:40:27.126Z,6628.00
2018-09-19T09:41:27.026Z,6768.00
2018-09-19T09:42:26.956Z,6876.00
2018-09-19T09:43:26.907Z,6932.00
2018-09-19T09:44:26.816Z,6964.00
2018-09-19T09:45:26.746Z,7028.00
2018-09-19T09:46:26.668Z,7080.00
2018-09-19T09:47:26.594Z,7016.00
2018-09-19T09:48:26.544Z,6852.00
2018-09-19T09:49:26.464Z,6624.00
2018-09-19T09:50:26.452Z,6304.00
2018-09-19T09:51:26.318Z,5976.00
2018-09-19T09:52:26.241Z,5776.00
2018-09-19T09:53:26.205Z,5708.00
2018-09-19T09:54:26.097Z,5668.00
2018-09-19T09:55:26.027Z,5644.00
2018-09-19T09:56:25.955Z,5672.00
2018-09-19T09:57:25.907Z,5680.00
2018-09-19T09:58:25.816Z,5600.00
2018-09-19T09:59:25.743Z,5484.00
2018-09-19T10:00:25.672Z,5344.00
2018-09-19T10:01:25.603Z,5164.00
2018-09-19T10:02:25.559Z,4964.00
2018-09-19T10:03:25.460Z,4800.00
2018-09-19T10:04:25.397Z,4740.00
2018-09-19T10:05:25.318Z,4756.00
2018-09-19T10:06:25.316Z,4668.00
2018-09-19T10:07:25.178Z,4612.00
2018-09-19T10:08:25.107Z,4600.00
2018-09-19T10:09:25.041Z,4600.00
2018-09-19T10:10:24.967Z,4608.00
2018-09-19T10:11:24.894Z,4656.00
2018-09-19T10:12:24.824Z,4740.00
2018-09-19T10:13:24.813Z,4884.00
2018-09-19T10:14:24.685Z,5064.00
2018-09-19T10:15:24.614Z,5244.00
2018-09-19T10:16:24.539Z,5152.00
2018-09-19T10:17:24.494Z,5128.00
2018-09-19T10:18:24.400Z,5176.00
2018-09-19T10:19:24.328Z,5220.00
2018-09-19T10:20:24.258Z,5320.00
2018-09-19T10:21:24.192Z,5540.00
2018-09-19T10:22:24.114Z,5840.00
2018-09-19T10:23:24.044Z,6196.00
2018-09-19T10:24:23.973Z,6576.00
2018-09-19T10:25:23.903Z,7024.00
2018-09-19T10:26:23.844Z,7448.00
2018-09-19T10:27:23.763Z,7796.00
2018-09-19T10:28:23.697Z,8164.00
2018-09-19T10:29:23.631Z,8608.00
2018-09-19T10:30:23.598Z,9040.00
2018-09-19T10:31:23.496Z,9552.00
2018-09-19T10:32:23.409Z,9956.00
2018-09-19T10:33:23.350Z,10536.00
2018-09-19T10:34:23.267Z,10884.00
2018-09-19T10:35:23.208Z,11776.00
2018-09-19T10:36:23.125Z,11884.00
2018-09-19T10:37:23.066Z,11736.00
2018-09-19T10:38:22.987Z,10916.00
2018-09-19T10:39:22.914Z,10328.00
2018-09-19T10:40:22.844Z,9884.00
2018-09-19T10:41:22.783Z,9588.00
2018-09-19T10:42:22.709Z,9556.00
2018-09-19T10:43:22.636Z,9648.00
2018-09-19T10:44:22.569Z,9820.00
2018-09-19T10:45:22.500Z,9912.00
2018-09-19T10:46:22.432Z,10360.00
2018-09-19T10:47:22.358Z,10352.00
2018-09-19T10:48:22.293Z,10764.00
2018-09-19T10:49:22.229Z,10540.00
2018-09-19T10:50:22.155Z,10440.00
2018-09-19T10:51:22.080Z,10548.00
2018-09-19T10:52:22.012Z,10552.00
2018-09-19T10:53:21.941Z,10620.00
2018-09-19T10:54:21.877Z,10748.00
2018-09-19T10:55:21.800Z,10532.00
2018-09-19T10:56:21.737Z,9560.00
2018-09-19T10:57:21.666Z,9896.00
2018-09-19T10:58:21.600Z,9436.00
2018-09-19T10:59:21.533Z,8748.00
2018-09-19T11:00:21.455Z,8352.00
2018-09-19T11:01:21.388Z,9528.00
2018-09-19T11:02:21.317Z,9376.00
2018-09-19T11:03:21.250Z,8284.00
2018-09-19T11:04:21.178Z,8872.00
2018-09-19T11:05:21.118Z,8552.00
2018-09-19T11:06:21.044Z,8308.00
2018-09-19T11:07:20.972Z,8088.00
2018-09-19T11:08:20.964Z,7884.00
2018-09-19T11:09:20.844Z,7756.00
2018-09-19T11:10:20.771Z,7668.00
2018-09-19T11:11:20.698Z,7592.00
2018-09-19T11:12:20.633Z,7548.00
2018-09-19T11:13:20.572Z,7488.00
2018-09-19T11:14:20.489Z,7404.00
2018-09-19T11:15:20.422Z,7300.00
2018-09-19T11:16:20.361Z,7228.00
2018-09-19T11:17:20.296Z,7276.00
2018-09-19T11:18:20.223Z,7828.00
2018-09-19T11:19:20.148Z,15116.00
2018-09-19T11:20:20.086Z,51840.00
2018-09-19T11:21:20.014Z,84864.00
2018-09-19T11:22:19.945Z,91968.00
2018-09-19T11:23:19.876Z,93280.00
2018-09-19T11:24:19.822Z,93088.00
2018-09-19T11:25:19.743Z,92000.00
2018-09-19T11:26:19.692Z,93248.00
2018-09-19T11:27:19.612Z,90496.00
2018-09-19T11:28:26.754Z,90528.00
2018-09-19T11:30:23.426Z,90784.00
2018-09-19T11:31:23.316Z,91968.00
2018-09-19T11:33:27.222Z,95552.00
2018-09-19T11:34:27.083Z,97056.00
2018-09-19T11:36:30.935Z,95808.00
2018-09-19T11:37:30.887Z,94144.00
2018-09-19T11:39:23.689Z,89152.00
2018-09-19T11:40:23.583Z,92288.00
2018-09-19T11:42:27.525Z,94624.00
2018-09-19T11:43:27.502Z,93728.00
2018-09-19T11:45:31.352Z,92992.00
2018-09-19T11:46:31.250Z,95680.00
2018-09-19T11:48:35.150Z,94272.00
2018-09-19T11:49:35.033Z,91936.00
2018-09-19T11:50:34.976Z,90944.00
2018-09-19T11:51:34.919Z,89728.00
2018-09-19T11:52:34.871Z,91936.00
2018-09-19T11:53:34.804Z,88288.00
2018-09-19T11:54:34.746Z,88640.00
2018-09-19T11:55:34.692Z,89184.00
2018-09-19T11:56:34.633Z,91360.00
2018-09-19T11:57:34.576Z,90656.00
2018-09-19T11:58:34.522Z,91616.00
2018-09-19T11:59:34.466Z,87200.00
2018-09-19T12:00:34.407Z,87072.00
2018-09-19T12:01:34.358Z,81376.00
2018-09-19T12:02:34.298Z,85312.00
2018-09-19T12:03:34.240Z,82784.00
2018-09-19T12:04:34.188Z,87200.00
2018-09-19T12:05:34.133Z,84704.00
2018-09-19T12:06:34.081Z,88256.00
2018-09-19T12:07:34.020Z,85888.00
2018-09-19T12:08:33.968Z,88992.00
2018-09-19T12:09:33.910Z,83264.00
2018-09-19T12:10:33.857Z,89088.00
2018-09-19T12:11:33.804Z,86400.00
2018-09-19T12:12:33.744Z,82496.00
2018-09-19T12:13:33.694Z,80256.00
2018-09-19T12:14:33.641Z,73632.00
2018-09-19T12:15:33.581Z,75616.00
2018-09-19T12:16:33.527Z,79648.00
2018-09-19T12:17:33.480Z,80544.00
2018-09-19T12:18:33.419Z,82752.00
2018-09-19T12:19:33.388Z,83968.00
2018-09-19T12:20:33.313Z,84224.00
2018-09-19T12:21:33.253Z,83296.00
2018-09-19T12:22:33.200Z,83392.00
2018-09-19T12:23:33.150Z,84512.00
2018-09-19T12:24:33.093Z,82496.00
2018-09-19T12:25:33.042Z,80960.00
2018-09-19T12:26:33.073Z,80064.00
2018-09-19T12:27:32.934Z,82912.00
2018-09-19T12:28:32.880Z,87328.00
2018-09-19T12:29:32.829Z,89152.00
2018-09-19T12:30:32.774Z,90240.00
2018-09-19T12:31:32.723Z,92960.00
2018-09-19T12:32:32.668Z,93248.00
2018-09-19T12:33:32.627Z,91520.00
2018-09-19T12:34:32.561Z,90752.00
2018-09-19T12:35:32.529Z,88256.00
2018-09-19T12:36:32.456Z,90592.00
2018-09-19T12:37:32.405Z,89088.00
2018-09-19T12:38:32.352Z,89312.00
2018-09-19T12:39:32.338Z,88288.00
2018-09-19T12:40:32.249Z,90016.00
2018-09-19T12:41:32.192Z,88288.00
2018-09-19T12:42:32.139Z,87040.00
2018-09-19T12:43:32.088Z,85952.00
2018-09-19T12:44:32.038Z,86176.00